الصفحة الرئيسية
METAR-TAF:

METAR-TAF

مطار :

مطار واشنطن دولس الدولي

Washington, فيرجينيا, الولايات المتحدة

دائرة عرض: 38-56-05N, خط طول: 077-26-51W, ارتفاع: 95 متر

مراقبة الطقس الحالي

تاريخ ووقت الإصدار 47 دقيقة قبل الساعة 10:52UTC
ريح 3 عقدة من الشمال الغربي
درجة الحرارة 16°درجة مئوية
الرطوبة 88%
ضغط 1022 hPa
الرؤية: 16.1 كم
غيوم قليلة على ارتفاع 25000 قدم

METAR: KIAD 241052Z 31003KT 10SM FEW250 16/14 A3018 RMK AO2 SLP217 T01560139

زمن: 07:39 (11:39 UTC)

توقعات

تاريخ ووقت الإصدار 16 دقيقة قبل الساعة 11:23UTC
التوقعات صالحة من24 الساعة 12 UTC إلى 25 الساعة 18 UTC
ريح 5 عقدة من الشمال/الشمال الغربي
الرؤية: 10 كم
سماء صافية
من 24 الساعة 2300 UTC
ريح 3 عقدةمن اتجاهات متغيرة
الرؤية: 10 كم
سماء صافية
من 25 الساعة 1200 UTC
ريح 6 عقدة من الجنوب/الجنوب الغربي
الرؤية: 10 كم
غيوم قليلة على ارتفاع 25000 قدم

TAF: KIAD 241123Z 2412/2518 34005KT P6SM SKC FM242300 VRB03KT P6SM SKC FM251200 21006KT P6SM FEW250

أرصاد الطقس والتوقعات من أكثر من 4000 مطار (تقارير الطقس للمطار METAR والتنبؤ بالطقس بالمطارTAF).

المحطات المتاحة هي النقط الصفراء والحمراء على الخريطة.

حرك المؤشر فوق النقطة لمعرفة اسم المحطة.

ثم انقر لمعرفة أرصاد وتوقعات الطقس.

لتغيير الخارطة: اضغط على الأزرار الخضراء مع رمز الصليب الأسود للتكبير. على الزر الأخضر مع شرطة للتصغير، أو على الأسهم الخضراء للخرائط المجاورة.


METAR-TAF: